Time;durP1;ratioP1;P1;durP2;ratioP2;P2;SDS_P1;SDS_P2;PMS_P1;PMS_P2;Temp;Humidity;BMP_temperature;BMP_pressure;BME280_temperature;BME280_humidity;BME280_pressure;Samples;Min_cycle;Max_cycle;Signal;HPM_P1;HPM_P2
2023/06/08 00:11:52;;;;;;;;;17.50;17.00;;;;;-147.17;100.00;38738.78;5084707;27;51035;-52
2023/06/08 00:14:18;;;;;;;;;17.75;17.25;;;;;-147.17;100.00;38255.97;5091747;27;52993;-52
2023/06/08 00:16:44;;;;;;;;;19.75;18.25;;;;;-147.17;100.00;37890.94;5093472;27;51025;-51
2023/06/08 00:19:10;;;;;;;;;17.25;17.25;;;;;-147.17;100.00;37102.16;5088769;27;51135;-51
2023/06/08 00:21:36;;;;;;;;;17.00;17.00;;;;;-147.17;100.00;36652.91;5088237;27;51192;-49
2023/06/08 00:24:02;;;;;;;;;20.00;19.50;;;;;-147.17;100.00;35468.19;5092841;27;52158;-50
2023/06/08 00:26:28;;;;;;;;;14.75;14.75;;;;;-147.17;100.00;34097.59;5088122;27;51178;-51
2023/06/08 00:28:53;;;;;;;;;18.00;17.00;;;;;-147.17;100.00;34021.16;5090320;27;52765;-49
2023/06/08 00:31:19;;;;;;;;;20.50;20.00;;;;;-147.17;100.00;32915.63;5082068;27;51056;-53
2023/06/08 00:33:44;;;;;;;;;21.50;20.50;;;;;-147.17;100.00;32459.03;5081669;27;52840;-52
2023/06/08 00:36:12;;;;;;;;;20.25;18.00;;;;;-147.17;100.00;31414.69;5080506;27;51191;-52
2023/06/08 00:38:37;;;;;;;;;19.00;18.50;;;;;-147.17;100.00;32466.84;5085084;27;51003;-53
2023/06/08 00:41:03;;;;;;;;;17.00;16.75;;;;;-147.17;100.00;30276.59;5093643;27;50929;-52
2023/06/08 00:43:28;;;;;;;;;18.00;17.50;;;;;-147.17;100.00;28432.09;5083613;27;51015;-52
2023/06/08 00:45:56;;;;;;;;;20.50;19.00;;;;;-147.17;100.00;24675.28;5089440;27;50918;-51
2023/06/08 00:48:23;;;;;;;;;19.25;19.00;;;;;-147.17;100.00;26177.59;5085440;27;51165;-50
2023/06/08 00:50:50;;;;;;;;;19.50;19.50;;;;;-147.17;100.00;26471.06;5092759;27;51442;-51
2023/06/08 00:53:16;;;;;;;;;20.00;19.00;;;;;-147.17;100.00;25676.75;5093064;27;51855;-50
2023/06/08 00:55:43;;;;;;;;;20.00;20.00;;;;;-147.17;100.00;22923.34;5092330;27;51053;-51
2023/06/08 00:58:13;;;;;;;;;17.50;17.25;;;;;-147.17;100.00;23423.81;5085795;27;51128;-49
2023/06/08 01:00:39;;;;;;;;;19.25;19.25;;;;;-147.17;100.00;21672.44;5086040;27;51392;-50
2023/06/08 01:03:06;;;;;;;;;22.25;20.00;;;;;-147.17;100.00;21672.44;5086269;27;51215;-52
2023/06/08 01:05:32;;;;;;;;;20.00;20.00;;;;;-147.17;100.00;20421.94;5092043;27;51151;-50
2023/06/08 01:08:10;;;;;;;;;17.75;17.50;;;;;-147.17;100.00;21672.44;5091008;27;51011;-52
2023/06/08 01:10:42;;;;;;;;;20.25;19.75;;;;;-147.17;100.00;22923.34;5087981;27;51140;-50
2023/06/08 01:13:25;;;;;;;;;19.50;18.75;;;;;-147.17;100.00;19921.84;5092950;27;51029;-49
2023/06/08 01:16:00;;;;;;;;;23.00;21.50;;;;;-147.17;100.00;21422.31;5092674;27;51020;-52
2023/06/08 01:18:32;;;;;;;;;21.75;21.75;;;;;-147.17;100.00;19421.84;5092295;27;52225;-49
2023/06/08 01:21:30;;;;;;;;;20.00;19.75;;;;;-147.17;100.00;19421.84;5089575;27;51304;-50
2023/06/08 01:24:12;;;;;;;;;18.25;18.25;;;;;-147.17;100.00;17922.16;5086846;27;51163;-52
2023/06/08 01:26:40;;;;;;;;;21.00;20.00;;;;;-147.17;100.00;16173.25;5089167;27;51091;-50
2023/06/08 01:29:05;;;;;;;;;23.00;22.00;;;;;-147.17;100.00;16173.25;5092758;27;51147;-51
2023/06/08 01:31:31;;;;;;;;;20.00;19.50;;;;;-147.17;100.00;14674.81;5081741;27;50902;-50
2023/06/08 01:33:57;;;;;;;;;22.75;21.75;;;;;-147.17;100.00;13925.81;5087805;27;53736;-50
2023/06/08 01:36:39;;;;;;;;;23.25;21.75;;;;;-147.17;100.00;13426.53;5090485;27;51021;-53
2023/06/08 01:39:31;;;;;;;;;20.50;19.50;;;;;-147.17;100.00;13676.16;5093538;27;51105;-52
2023/06/08 01:42:02;;;;;;;;;23.50;22.75;;;;;-147.17;100.00;11430.19;5073091;27;51133;-52
2023/06/08 01:44:30;;;;;;;;;22.75;22.50;;;;;-147.17;100.00;10931.25;5088363;27;53024;-52
2023/06/08 01:46:59;;;;;;;;;20.25;20.25;;;;;-147.17;100.00;10681.81;5082800;27;51180;-52
2023/06/08 01:49:27;;;;;;;;;22.00;22.00;;;;;-147.17;100.00;9185.47;5092580;27;50992;-52
2023/06/08 01:51:53;;;;;;;;;21.75;21.25;;;;;-147.17;100.00;8188.25;5092722;27;51288;-52
2023/06/08 01:54:21;;;;;;;;;23.25;23.25;;;;;-147.17;100.00;7689.75;5088836;27;52184;-50
2023/06/08 01:56:47;;;;;;;;;22.75;22.75;;;;;-147.17;100.00;6692.91;5105401;27;51067;-50
2023/06/08 01:59:12;;;;;;;;;22.50;22.25;;;;;-147.17;100.00;6443.75;5080762;27;51040;-48
2023/06/08 02:01:37;;;;;;;;;24.00;22.50;;;;;-147.17;100.00;5447.22;5085410;27;51151;-51
2023/06/08 02:04:03;;;;;;;;;23.50;23.00;;;;;-147.17;100.00;5945.44;5075938;27;55733;-51
2023/06/08 02:06:28;;;;;;;;;29.00;28.25;;;;;-147.17;100.00;5945.44;5090259;27;51042;-50
2023/06/08 02:08:54;;;;;;;;;25.75;25.25;;;;;-147.17;100.00;5198.13;5092218;27;51197;-50
2023/06/08 02:11:21;;;;;;;;;24.75;23.00;;;;;-147.17;100.00;5198.13;5093290;27;51090;-53
2023/06/08 02:13:47;;;;;;;;;26.75;23.75;;;;;-147.17;100.00;4450.97;5079481;27;52157;-52
2023/06/08 02:16:12;;;;;;;;;24.25;23.25;;;;;-147.17;100.00;3454.97;5091755;27;51082;-52
2023/06/08 02:18:41;;;;;;;;;24.75;23.50;;;;;-147.17;100.00;2708.13;5087801;27;51148;-52
2023/06/08 02:21:10;;;;;;;;;25.75;25.50;;;;;-147.17;100.00;1961.44;5088538;27;54883;-53
2023/06/08 02:23:36;;;;;;;;;25.00;23.50;;;;;-147.17;100.00;717.28;5081756;27;52255;-52
2023/06/08 02:26:02;;;;;;;;;24.25;24.25;;;;;-147.17;100.00;-277.75;5075671;28;50984;-53
2023/06/08 02:28:27;;;;;;;;;26.00;26.00;;;;;-147.17;100.00;-1023.88;5089366;27;50992;-54
2023/06/08 02:30:53;;;;;;;;;28.75;27.75;;;;;-147.17;100.00;-526.47;5083703;27;51186;-54
2023/06/08 02:33:18;;;;;;;;;25.25;24.25;;;;;-147.17;100.00;-1023.88;5092779;27;51017;-52
2023/06/08 02:35:43;;;;;;;;;30.50;28.25;;;;;-147.17;100.00;-1521.19;5078255;27;51047;-53
2023/06/08 02:38:09;;;;;;;;;25.00;25.00;;;;;-147.17;100.00;-2267.06;5092843;27;51012;-53
2023/06/08 02:40:35;;;;;;;;;25.25;24.00;;;;;-147.17;100.00;-2267.06;5095081;27;51089;-54
2023/06/08 02:43:00;;;;;;;;;24.75;23.75;;;;;-147.17;100.00;-2267.06;5094688;27;51208;-51
2023/06/08 02:45:26;;;;;;;;;27.50;27.00;;;;;-147.17;100.00;-2515.66;5095831;27;51156;-51
2023/06/08 02:47:52;;;;;;;;;28.75;27.00;;;;;-147.17;100.00;-3261.34;5095679;27;51395;-53
2023/06/08 02:50:17;;;;;;;;;27.00;25.25;;;;;-147.17;100.00;-3509.84;5093417;27;51128;-49
2023/06/08 02:52:42;;;;;;;;;26.50;25.25;;;;;-147.17;100.00;-3758.38;5087280;27;51215;-53
2023/06/08 02:55:08;;;;;;;;;23.50;23.50;;;;;-147.17;100.00;-3758.38;5077009;27;51172;-53
2023/06/08 02:57:34;;;;;;;;;25.75;24.75;;;;;-147.17;100.00;-4255.34;5094426;27;51245;-51
2023/06/08 02:59:59;;;;;;;;;34.50;32.50;;;;;-147.17;100.00;-5249.09;5096060;27;51003;-52
2023/06/08 03:02:27;;;;;;;;;35.00;32.00;;;;;-147.17;100.00;-5000.69;5092571;27;51897;-53
2023/06/08 03:04:53;;;;;;;;;37.25;34.00;;;;;-147.17;100.00;-5249.09;5086423;27;51087;-51
2023/06/08 03:07:19;;;;;;;;;37.50;32.25;;;;;-147.17;100.00;-5745.88;5075369;27;51138;-52
2023/06/08 03:09:44;;;;;;;;;33.00;31.25;;;;;-147.17;100.00;-5745.88;5079363;27;51085;-52
2023/06/08 03:12:12;;;;;;;;;31.50;30.75;;;;;-147.17;100.00;-5497.50;5087714;27;51227;-51
2023/06/08 03:14:40;;;;;;;;;35.25;33.00;;;;;-147.17;100.00;-6242.59;5075363;27;51053;-51
2023/06/08 03:17:07;;;;;;;;;30.25;29.00;;;;;-147.17;100.00;-6490.94;5075101;27;51028;-53
2023/06/08 03:19:32;;;;;;;;;36.50;33.75;;;;;-147.17;100.00;-6490.94;5073834;28;51021;-50
2023/06/08 03:22:04;;;;;;;;;33.00;30.75;;;;;-147.17;100.00;-6490.94;5084368;27;62237;-53
2023/06/08 03:24:31;;;;;;;;;29.25;29.25;;;;;-147.17;100.00;-7235.84;5076166;27;51129;-53
2023/06/08 03:27:00;;;;;;;;;30.00;28.00;;;;;-147.17;100.00;-7980.59;5075095;27;51134;-57
2023/06/08 03:29:26;;;;;;;;;35.50;33.25;;;;;-147.17;100.00;-7235.84;5082013;27;51117;-52
2023/06/08 03:31:52;;;;;;;;;31.25;30.75;;;;;-147.17;100.00;-7484.09;5094536;27;51181;-53
2023/06/08 03:34:18;;;;;;;;;41.00;35.75;;;;;-147.17;100.00;-7732.34;5093624;27;51051;-49
2023/06/08 03:36:44;;;;;;;;;27.50;26.75;;;;;-147.17;100.00;-6987.56;5095310;27;51079;-52
2023/06/08 03:39:10;;;;;;;;;26.00;25.75;;;;;-147.17;100.00;-7235.84;5095322;27;51359;-50
2023/06/08 03:41:35;;;;;;;;;28.00;27.50;;;;;-147.17;100.00;-7732.34;5093241;27;51166;-51
2023/06/08 03:44:01;;;;;;;;;25.00;25.00;;;;;-147.17;100.00;-7732.34;5081828;27;51149;-53
2023/06/08 03:46:27;;;;;;;;;26.75;25.75;;;;;-147.17;100.00;-7732.34;5074886;27;51082;-51
2023/06/08 03:48:52;;;;;;;;;26.00;25.50;;;;;-147.17;100.00;-7732.34;5085469;27;51258;-52
2023/06/08 03:51:21;;;;;;;;;25.25;24.50;;;;;-147.17;100.00;-8477.03;5092184;27;51130;-50
2023/06/08 03:53:46;;;;;;;;;26.25;25.25;;;;;-147.17;100.00;-8228.81;5095029;27;51101;-52
2023/06/08 03:56:12;;;;;;;;;29.00;28.75;;;;;-147.17;100.00;-8973.38;5092779;27;51241;-52
2023/06/08 03:58:38;;;;;;;;;25.75;25.75;;;;;-147.17;100.00;-9221.53;5080626;27;51106;-53
2023/06/08 04:01:03;;;;;;;;;27.75;27.50;;;;;-147.17;100.00;-8973.38;5080701;27;51386;-53
2023/06/08 04:03:29;;;;;;;;;29.00;28.25;;;;;-147.17;100.00;-8973.38;5088392;27;51090;-51
2023/06/08 04:05:56;;;;;;;;;26.00;25.25;;;;;-147.17;100.00;-9717.81;5094832;27;51204;-52
2023/06/08 04:08:22;;;;;;;;;24.50;24.50;;;;;-147.17;100.00;-9717.81;5090586;27;51249;-53
2023/06/08 04:10:48;;;;;;;;;28.75;28.75;;;;;-147.17;100.00;-10462.09;5091851;27;52329;-51
2023/06/08 04:13:13;;;;;;;;;24.75;24.25;;;;;-147.17;100.00;-10958.19;5085299;27;51319;-52
2023/06/08 04:15:38;;;;;;;;;26.75;26.50;;;;;-147.17;100.00;-11206.22;5073695;27;51241;-49
2023/06/08 04:18:05;;;;;;;;;25.75;25.00;;;;;-147.17;100.00;-11454.25;5088601;27;51106;-51
2023/06/08 04:20:31;;;;;;;;;27.75;27.00;;;;;-147.17;100.00;-11702.25;5088279;27;51599;-50
2023/06/08 04:22:57;;;;;;;;;31.50;30.50;;;;;-147.17;100.00;-11206.22;5087005;27;51551;-51
2023/06/08 04:25:24;;;;;;;;;29.00;28.50;;;;;-147.17;100.00;-11950.22;5093275;27;51004;-53
2023/06/08 04:27:51;;;;;;;;;29.25;28.25;;;;;-147.17;100.00;-12446.13;5093600;27;51007;-51
2023/06/08 04:30:17;;;;;;;;;29.00;28.00;;;;;-147.17;100.00;-12694.06;5092986;27;53200;-49
2023/06/08 04:32:42;;;;;;;;;29.00;29.00;;;;;-147.17;100.00;-12941.97;5087854;27;51071;-50
2023/06/08 04:35:08;;;;;;;;;27.25;24.75;;;;;-147.17;100.00;-13189.88;5093977;27;51229;-49
2023/06/08 04:37:34;;;;;;;;;28.25;28.00;;;;;-147.17;100.00;-12941.97;5091715;27;51120;-51
2023/06/08 04:40:01;;;;;;;;;31.25;29.75;;;;;-147.17;100.00;-13437.75;5093753;27;51297;-52
2023/06/08 04:42:27;;;;;;;;;33.50;30.50;;;;;-147.17;100.00;-13933.50;5091609;27;51227;-49
2023/06/08 04:44:53;;;;;;;;;30.25;30.00;;;;;-147.17;100.00;-14181.31;5092419;27;51220;-51
2023/06/08 04:47:18;;;;;;;;;29.25;29.25;;;;;-147.17;100.00;-14429.16;5081174;27;51405;-49
2023/06/08 04:49:44;;;;;;;;;30.00;29.25;;;;;-147.17;100.00;-14429.16;5090559;27;51267;-51
2023/06/08 04:52:13;;;;;;;;;34.75;32.25;;;;;-147.17;100.00;-14429.16;5086484;27;51279;-52
2023/06/08 04:54:39;;;;;;;;;25.25;25.25;;;;;-147.17;100.00;-14924.75;5082618;27;51232;-53
2023/06/08 04:57:08;;;;;;;;;29.25;28.25;;;;;-147.17;100.00;-15172.50;5088608;27;51349;-52
2023/06/08 04:59:34;;;;;;;;;31.25;29.75;;;;;-147.17;100.00;-15668.00;5086757;27;52211;-54
2023/06/08 05:02:01;;;;;;;;;28.50;28.50;;;;;-147.17;100.00;-15915.72;5082828;27;51250;-51
2023/06/08 05:04:26;;;;;;;;;30.75;29.25;;;;;-147.17;100.00;-15668.00;5085654;27;51164;-49
2023/06/08 05:06:52;;;;;;;;;32.50;31.75;;;;;-147.17;100.00;-15172.50;5084621;27;51060;-52
2023/06/08 05:09:17;;;;;;;;;29.25;28.25;;;;;-147.17;100.00;-14429.16;5090024;27;51372;-55
2023/06/08 05:11:42;;;;;;;;;30.75;30.75;;;;;-147.17;100.00;-13189.88;5081388;27;51216;-54
2023/06/08 05:14:10;;;;;;;;;34.75;32.25;;;;;-147.17;100.00;-12198.19;5093799;27;51028;-53
2023/06/08 05:16:37;;;;;;;;;31.50;30.75;;;;;-147.17;100.00;-11206.22;5089857;27;51302;-51
2023/06/08 05:19:02;;;;;;;;;31.00;29.50;;;;;-147.17;100.00;-9469.69;5091434;27;52752;-50
2023/06/08 05:21:28;;;;;;;;;31.00;30.50;;;;;-147.17;100.00;-8973.38;5089090;27;51376;-53
2023/06/08 05:23:53;;;;;;;;;29.50;29.50;;;;;-147.17;100.00;-7732.34;5089998;27;51288;-52
2023/06/08 05:26:21;;;;;;;;;27.75;27.25;;;;;-147.17;100.00;-5994.25;5088998;27;51175;-52
2023/06/08 05:28:46;;;;;;;;;35.00;31.25;;;;;-147.17;100.00;-3758.38;5091959;27;53272;-53
2023/06/08 05:31:12;;;;;;;;;32.75;30.50;;;;;-147.17;100.00;-2764.22;5085279;27;51165;-52
2023/06/08 05:33:37;;;;;;;;;37.25;33.75;;;;;-147.17;100.00;-1521.19;5087511;27;51164;-52
2023/06/08 05:36:03;;;;;;;;;32.25;31.25;;;;;-147.17;100.00;1712.56;5080318;27;51040;-52
2023/06/08 05:38:29;;;;;;;;;34.75;32.00;;;;;-147.17;100.00;3206.00;5090500;27;52145;-51
2023/06/08 05:40:54;;;;;;;;;28.25;27.25;;;;;-147.17;100.00;5945.44;5076510;27;51207;-52
2023/06/08 05:43:20;;;;;;;;;31.75;30.25;;;;;-147.17;100.00;9185.47;5086877;27;51369;-53
2023/06/08 05:45:45;;;;;;;;;32.75;30.75;;;;;-147.17;100.00;10681.81;5091303;27;51107;-52
2023/06/08 05:48:12;;;;;;;;;32.75;30.75;;;;;-147.17;100.00;12927.34;5073892;27;52210;-51
2023/06/08 05:50:38;;;;;;;;;32.00;30.25;;;;;-147.17;100.00;16672.84;5076761;27;51039;-53
2023/06/08 05:53:03;;;;;;;;;31.25;28.75;;;;;-147.17;100.00;21422.31;5088704;27;51453;-50
2023/06/08 05:55:29;;;;;;;;;36.00;32.75;;;;;-147.17;100.00;23924.38;5082718;27;51309;-52
2023/06/08 05:57:54;;;;;;;;;28.50;28.25;;;;;-147.17;100.00;26036.72;5083465;27;51700;-52
2023/06/08 06:00:20;;;;;;;;;32.00;30.25;;;;;-147.17;100.00;27529.75;5075494;27;51166;-53
2023/06/08 06:02:46;;;;;;;;;34.25;31.50;;;;;-147.17;100.00;30946.47;5069219;27;51203;-53
2023/06/08 06:05:11;;;;;;;;;32.50;30.50;;;;;-147.17;100.00;33344.88;5085862;27;51324;-53
2023/06/08 06:07:37;;;;;;;;;32.00;30.50;;;;;-147.17;100.00;33995.66;5082188;27;51082;-52
2023/06/08 06:10:04;;;;;;;;;36.75;33.25;;;;;-147.17;100.00;35174.03;5086779;27;51195;-54
2023/06/08 06:12:30;;;;;;;;;36.75;32.75;;;;;-147.17;100.00;36184.06;5087546;27;51008;-52
2023/06/08 06:14:55;;;;;;;;;32.75;30.75;;;;;-147.17;100.00;37298.38;5086825;27;51872;-52
2023/06/08 06:17:22;;;;;;;;;31.25;30.00;;;;;-147.17;100.00;38004.75;5066829;28;52768;-51
2023/06/08 06:19:47;;;;;;;;;29.50;29.00;;;;;-147.17;100.00;39376.72;5087708;27;51157;-51
2023/06/08 06:22:12;;;;;;;;;34.25;32.00;;;;;-147.17;100.00;39323.72;5090738;27;51481;-52
2023/06/08 06:24:38;;;;;;;;;38.00;33.00;;;;;-147.17;100.00;40305.38;5089800;27;51468;-51
2023/06/08 06:27:05;;;;;;;;;34.75;32.25;;;;;-147.17;100.00;40144.34;5083981;27;51059;-51
2023/06/08 06:29:30;;;;;;;;;32.25;30.75;;;;;-147.17;100.00;40442.81;5089592;27;51083;-52
2023/06/08 06:31:56;;;;;;;;;34.00;31.25;;;;;-147.17;100.00;40391.75;5088565;27;51738;-54
2023/06/08 06:34:22;;;;;;;;;34.50;32.00;;;;;-147.17;100.00;40755.03;5090359;27;51180;-54
2023/06/08 06:36:47;;;;;;;;;30.00;28.75;;;;;-147.17;100.00;41446.34;5085148;27;51039;-53
2023/06/08 06:39:13;;;;;;;;;33.25;31.50;;;;;-147.17;100.00;42153.50;5090796;27;51052;-51
2023/06/08 06:41:41;;;;;;;;;34.50;32.50;;;;;-147.17;100.00;42410.84;5090221;27;51449;-50
2023/06/08 06:44:08;;;;;;;;;38.25;33.25;;;;;-147.17;100.00;42446.22;5086371;27;51497;-51
2023/06/08 06:46:33;;;;;;;;;39.50;34.50;;;;;-147.17;100.00;42520.88;5082253;27;51866;-52
2023/06/08 06:48:59;;;;;;;;;43.00;36.00;;;;;-147.17;100.00;43008.13;5078654;27;51134;-53
2023/06/08 06:51:25;;;;;;;;;38.00;33.75;;;;;-147.17;100.00;43330.38;5090281;27;51012;-50
2023/06/08 06:53:51;;;;;;;;;34.25;31.00;;;;;-147.17;100.00;43141.75;5087093;27;51397;-53
2023/06/08 06:56:16;;;;;;;;;32.75;31.00;;;;;-147.17;100.00;43332.34;5089417;27;51879;-54
2023/06/08 06:58:44;;;;;;;;;34.50;32.25;;;;;-147.17;100.00;43786.31;5092251;27;51139;-51
2023/06/08 07:01:15;;;;;;;;;33.25;31.00;;;;;-147.17;100.00;43676.25;5079659;27;51060;-51
2023/06/08 07:03:42;;;;;;;;;36.75;31.00;;;;;-147.17;100.00;43914.06;5082397;27;51406;-52
2023/06/08 07:06:11;;;;;;;;;37.50;31.75;;;;;-147.17;100.00;43817.75;5090749;27;54014;-54
2023/06/08 07:08:37;;;;;;;;;34.00;31.25;;;;;-147.17;100.00;44045.75;5084942;27;51222;-54
2023/06/08 07:11:02;;;;;;;;;34.50;31.50;;;;;-147.17;100.00;44226.56;5088329;27;51504;-54
2023/06/08 07:13:28;;;;;;;;;38.50;34.00;;;;;-147.17;100.00;44228.53;5084667;27;51119;-53
2023/06/08 07:15:54;;;;;;;;;34.25;31.75;;;;;-147.17;100.00;44183.31;5090716;27;51856;-53
2023/06/08 07:18:20;;;;;;;;;33.00;31.00;;;;;-147.17;100.00;44134.19;5089401;27;51133;-54
2023/06/08 07:20:46;;;;;;;;;34.67;30.33;;;;;-147.17;100.00;44411.31;5091554;27;51051;-52
2023/06/08 07:23:11;;;;;;;;;40.50;35.00;;;;;-147.17;100.00;44436.88;5093144;27;51737;-54
2023/06/08 07:25:37;;;;;;;;;35.50;32.00;;;;;-147.17;100.00;44558.75;5088354;27;52134;-52
2023/06/08 07:28:04;;;;;;;;;39.75;34.00;;;;;-147.17;100.00;44611.81;5093230;27;50969;-51
2023/06/08 07:30:31;;;;;;;;;37.25;34.00;;;;;-147.17;100.00;44643.28;5091812;27;51159;-52
2023/06/08 07:32:57;;;;;;;;;38.75;34.00;;;;;-147.17;100.00;44851.63;5092075;27;51395;-53
2023/06/08 07:35:22;;;;;;;;;39.50;34.50;;;;;-147.17;100.00;44786.78;5091559;27;53799;-53
2023/06/08 07:37:48;;;;;;;;;39.00;34.50;;;;;-147.17;100.00;44853.59;5091352;27;51184;-53
2023/06/08 07:40:13;;;;;;;;;40.50;35.50;;;;;-147.17;100.00;44798.56;5091229;27;51113;-49
2023/06/08 07:42:38;;;;;;;;;34.25;31.75;;;;;-147.17;100.00;44582.34;5093444;27;51025;-52
2023/06/08 07:45:04;;;;;;;;;36.25;33.00;;;;;-147.17;100.00;44338.59;5087731;27;52807;-48
2023/06/08 07:47:30;;;;;;;;;38.75;34.25;;;;;-147.17;100.00;44539.09;5092732;27;51185;-49
2023/06/08 07:49:56;;;;;;;;;36.00;32.75;;;;;-147.17;100.00;44277.66;5089847;27;51308;-52
2023/06/08 07:52:22;;;;;;;;;36.75;33.00;;;;;-147.17;100.00;44334.66;5087840;27;51265;-54
2023/06/08 07:54:47;;;;;;;;;35.50;32.50;;;;;-147.17;100.00;44395.59;5081543;27;51750;-54
2023/06/08 07:57:13;;;;;;;;;33.25;31.25;;;;;-147.17;100.00;44202.97;5087968;27;51681;-55
2023/06/08 07:59:38;;;;;;;;;35.75;32.00;;;;;-147.17;100.00;44222.63;5084652;27;51038;-54
2023/06/08 08:02:08;;;;;;;;;35.00;31.00;;;;;-147.17;100.00;44313.03;5086326;27;50976;-54
2023/06/08 08:04:33;;;;;;;;;33.75;31.25;;;;;-147.17;100.00;44230.50;5089554;27;52820;-53
2023/06/08 08:06:58;;;;;;;;;37.50;32.75;;;;;-147.17;100.00;44293.38;5086067;27;51014;-53
2023/06/08 08:09:23;;;;;;;;;33.00;31.00;;;;;-147.17;100.00;44167.59;5088469;27;51159;-52
2023/06/08 08:11:49;;;;;;;;;34.00;31.00;;;;;-147.17;100.00;43941.56;5093717;27;51223;-54
2023/06/08 08:14:14;;;;;;;;;34.75;31.50;;;;;-147.17;100.00;43837.41;5090523;27;51820;-54
2023/06/08 08:16:40;;;;;;;;;34.50;31.25;;;;;-147.17;100.00;44171.53;5093430;27;51090;-53
2023/06/08 08:19:05;;;;;;;;;32.75;31.00;;;;;-147.17;100.00;44077.19;5090742;27;51417;-53
2023/06/08 08:21:31;;;;;;;;;32.25;31.00;;;;;-147.17;100.00;43896.38;5088128;27;51301;-53
2023/06/08 08:23:57;;;;;;;;;36.25;32.75;;;;;-147.17;100.00;43578.00;5092903;27;51284;-54
2023/06/08 08:26:22;;;;;;;;;36.75;32.50;;;;;-147.17;100.00;43908.16;5090736;27;50959;-53
2023/06/08 08:28:47;;;;;;;;;36.75;32.75;;;;;-147.17;100.00;43845.28;5090664;27;50920;-51
2023/06/08 08:31:13;;;;;;;;;30.75;29.75;;;;;-147.17;100.00;43680.19;5093496;27;50957;-54
2023/06/08 08:33:38;;;;;;;;;33.50;30.50;;;;;-147.17;100.00;43583.91;5081479;27;51790;-53
2023/06/08 08:36:04;;;;;;;;;38.00;33.75;;;;;-147.17;100.00;43489.56;5090106;27;50898;-53
2023/06/08 08:38:30;;;;;;;;;33.00;31.00;;;;;-147.17;100.00;43389.34;5086484;27;51068;-54
2023/06/08 08:41:02;;;;;;;;;32.00;29.50;;;;;-147.17;100.00;43279.31;5083306;27;52563;-54
2023/06/08 08:43:49;;;;;;;;;37.75;33.75;;;;;-147.17;100.00;43063.16;5085048;27;51371;-53
2023/06/08 08:46:17;;;;;;;;;34.75;31.25;;;;;-147.17;100.00;43365.75;5071474;27;51165;-52
2023/06/08 08:48:43;;;;;;;;;36.00;31.50;;;;;-147.17;100.00;43460.09;5082706;27;51128;-53
2023/06/08 08:51:18;;;;;;;;;31.25;30.00;;;;;-147.17;100.00;43304.84;5081421;27;51095;-50
2023/06/08 08:53:45;;;;;;;;;35.25;31.50;;;;;-147.17;100.00;43273.41;5086302;27;51134;-55
2023/06/08 08:56:12;;;;;;;;;36.25;31.25;;;;;-147.17;100.00;43405.06;5088439;27;52691;-54
2023/06/08 08:58:38;;;;;;;;;29.00;27.50;;;;;-147.17;100.00;43241.97;5090277;27;51271;-52
2023/06/08 09:01:05;;;;;;;;;34.25;31.75;;;;;-147.17;100.00;43104.41;5090198;27;51392;-53
2023/06/08 09:03:30;;;;;;;;;32.75;30.75;;;;;-147.17;100.00;43002.25;5082560;27;51127;-53
2023/06/08 09:05:56;;;;;;;;;32.25;30.00;;;;;-147.17;100.00;42904.00;5082739;27;51305;-55
2023/06/08 09:08:25;;;;;;;;;34.25;31.50;;;;;-147.17;100.00;42964.91;5092731;27;51084;-54
2023/06/08 09:11:04;;;;;;;;;30.00;28.75;;;;;-147.17;100.00;43629.09;5077168;27;51193;-53
2023/06/08 09:13:30;;;;;;;;;31.50;30.25;;;;;-147.17;100.00;43874.75;5090300;27;52113;-54
2023/06/08 09:15:55;;;;;;;;;32.75;30.75;;;;;-147.17;100.00;43990.72;5089825;27;50929;-55
2023/06/08 09:18:21;;;;;;;;;31.00;29.75;;;;;-147.17;100.00;44175.47;5090637;27;51716;-53
2023/06/08 09:20:46;;;;;;;;;25.75;24.75;;;;;-147.17;100.00;44548.91;5085682;27;51270;-52
2023/06/08 09:23:17;;;;;;;;;32.50;30.25;;;;;-147.17;100.00;44163.66;5083272;27;52178;-53
2023/06/08 09:25:43;;;;;;;;;29.25;28.25;;;;;-147.17;100.00;43782.38;5080624;27;50994;-54
2023/06/08 09:28:36;;;;;;;;;32.00;29.50;;;;;-147.17;100.00;43353.97;5091030;27;51016;-63
2023/06/08 09:31:09;;;;;;;;;29.50;28.75;;;;;-147.17;100.00;43055.28;5084435;27;51259;-62
2023/06/08 09:33:34;;;;;;;;;32.50;30.50;;;;;-147.17;100.00;42721.28;5090778;27;51285;-62
2023/06/08 09:36:01;;;;;;;;;31.50;29.50;;;;;-147.17;100.00;43306.81;5091084;27;51140;-63
2023/06/08 09:38:27;;;;;;;;;29.00;29.00;;;;;-147.17;100.00;43619.25;5091169;27;51050;-63
2023/06/08 09:41:16;;;;;;;;;28.00;28.00;;;;;-147.17;100.00;43640.88;5078178;27;51326;-63
2023/06/08 09:43:46;;;;;;;;;25.25;25.25;;;;;-147.17;100.00;43644.81;5083715;27;51214;-61
2023/06/08 09:46:16;;;;;;;;;31.75;30.00;;;;;-147.17;100.00;43548.53;5086579;27;51055;-62
2023/06/08 09:48:53;;;;;;;;;32.25;29.25;;;;;-147.17;100.00;43306.81;5086989;27;51178;-62
2023/06/08 09:51:21;;;;;;;;;29.50;28.75;;;;;-147.17;100.00;43805.97;5083810;27;51402;-62
2023/06/08 09:53:49;;;;;;;;;31.00;29.75;;;;;-147.17;100.00;43804.00;5086134;27;53232;-60
2023/06/08 09:56:15;;;;;;;;;30.25;29.25;;;;;-147.17;100.00;43841.34;5082822;27;51224;-61
2023/06/08 09:58:45;;;;;;;;;29.00;28.00;;;;;-147.17;100.00;44024.13;5091223;27;51143;-62
2023/06/08 10:01:12;;;;;;;;;27.25;27.00;;;;;-147.17;100.00;44100.78;5081313;27;51307;-61
2023/06/08 10:03:47;;;;;;;;;30.75;29.75;;;;;-147.17;100.00;44171.53;5089740;27;52219;-60
2023/06/08 10:06:16;;;;;;;;;25.50;24.75;;;;;-147.17;100.00;44546.94;5087884;27;51094;-61
2023/06/08 10:08:45;;;;;;;;;22.50;21.50;;;;;-147.17;100.00;44788.72;5081923;27;51207;-60
2023/06/08 10:11:13;;;;;;;;;25.75;25.25;;;;;-147.17;100.00;45038.41;5091341;27;51177;-60
2023/06/08 10:13:39;;;;;;;;;25.25;25.25;;;;;-147.17;100.00;45280.22;5091240;27;51052;-59
2023/06/08 10:16:05;;;;;;;;;29.50;28.75;;;;;-147.17;100.00;45351.00;5092322;27;51093;-60
2023/06/08 10:18:33;;;;;;;;;30.75;29.75;;;;;-147.17;100.00;45195.66;5092618;27;51215;-60
2023/06/08 10:21:01;;;;;;;;;25.75;25.50;;;;;-147.17;100.00;45020.69;5086706;27;51393;-60
2023/06/08 10:23:27;;;;;;;;;28.75;28.00;;;;;-147.17;100.00;44944.03;5079791;27;51811;-61
2023/06/08 10:25:53;;;;;;;;;22.75;22.50;;;;;-147.17;100.00;45207.47;5079271;27;51117;-60
2023/06/08 10:28:20;;;;;;;;;28.75;28.50;;;;;-147.17;100.00;45659.66;5091873;27;51161;-60
2023/06/08 10:30:46;;;;;;;;;26.25;26.00;;;;;-147.17;100.00;46347.91;5091906;27;50888;-60
2023/06/08 10:33:24;;;;;;;;;25.75;24.75;;;;;-147.17;100.00;47160.19;5092244;27;51789;-61
2023/06/08 10:36:10;;;;;;;;;26.50;26.00;;;;;-147.17;100.00;47624.41;5083281;27;51227;-60
2023/06/08 10:38:56;;;;;;;;;25.75;25.75;;;;;-147.17;100.00;47913.59;5087861;27;51039;-60
2023/06/08 10:41:43;;;;;;;;;27.75;27.75;;;;;-147.17;100.00;48045.41;5076379;27;51550;-60
2023/06/08 10:44:41;;;;;;;;;24.50;23.50;;;;;-147.17;100.00;47919.50;5094328;27;51397;-61
2023/06/08 10:47:08;;;;;;;;;24.75;24.00;;;;;-147.17;100.00;47848.69;5077320;27;51044;-61
2023/06/08 10:49:44;;;;;;;;;23.75;23.50;;;;;-147.17;100.00;47852.63;5095083;27;51106;-61
2023/06/08 10:52:16;;;;;;;;;29.50;29.00;;;;;-147.17;100.00;47935.25;5086346;27;51136;-61
2023/06/08 10:54:54;;;;;;;;;26.00;25.50;;;;;-147.17;100.00;47935.25;5083408;27;53790;-61
2023/06/08 10:57:34;;;;;;;;;27.75;26.00;;;;;-147.17;100.00;47958.84;5089891;27;51068;-61
2023/06/08 11:00:00;;;;;;;;;26.75;26.75;;;;;-147.17;100.00;48069.03;5087703;27;51295;-61
2023/06/08 11:02:28;;;;;;;;;24.25;24.25;;;;;-147.17;100.00;48291.34;5094257;27;51168;-60
2023/06/08 11:04:56;;;;;;;;;22.50;22.50;;;;;-147.17;100.00;48373.97;5077448;27;51905;-61
2023/06/08 11:07:25;;;;;;;;;25.00;24.00;;;;;-147.17;100.00;48295.28;5093089;27;50913;-60